Time;durP1;ratioP1;P1;durP2;ratioP2;P2;SDS_P1;SDS_P2;PMS_P1;PMS_P2;Temp;Humidity;BMP_temperature;BMP_pressure;BME280_temperature;BME280_humidity;BME280_pressure;Samples;Min_cycle;Max_cycle;Signal;HPM_P1;HPM_P2
2022/11/06 00:00:40;;;;;;;1.80;1.70;;;7.80;99.90;;;;;;5045337;28;20199;-73
2022/11/06 00:03:07;;;;;;;1.50;1.50;;;7.80;99.90;;;;;;5049512;28;20220;-73
2022/11/06 00:08:31;;;;;;;2.05;1.95;;;7.90;99.90;;;;;;5046933;28;20743;-73
2022/11/06 00:11:01;;;;;;;1.70;1.60;;;7.80;99.90;;;;;;5049730;28;20210;-72
2022/11/06 00:13:29;;;;;;;2.05;1.95;;;7.80;99.90;;;;;;5044682;28;20302;-72
2022/11/06 00:15:56;;;;;;;1.80;1.70;;;7.70;99.90;;;;;;5056156;28;20199;-72
2022/11/06 00:18:27;;;;;;;2.00;1.90;;;7.60;99.90;;;;;;5031188;28;20229;-73
2022/11/06 00:20:54;;;;;;;1.80;1.70;;;7.50;99.90;;;;;;5034955;28;20194;-73
2022/11/06 00:23:21;;;;;;;1.90;1.80;;;7.50;99.90;;;;;;5026013;28;20223;-73
2022/11/06 00:25:51;;;;;;;1.90;1.80;;;7.50;99.90;;;;;;5029242;28;20196;-73
2022/11/06 00:28:20;;;;;;;1.90;1.80;;;7.40;99.90;;;;;;5026897;28;20219;-73
2022/11/06 00:30:48;;;;;;;2.33;2.13;;;7.30;99.90;;;;;;5031604;28;20196;-73
2022/11/06 00:33:15;;;;;;;2.47;2.35;;;7.20;99.90;;;;;;5046662;28;20234;-73
2022/11/06 00:35:42;;;;;;;2.17;2.08;;;7.20;99.90;;;;;;5050922;28;20211;-73
2022/11/06 00:38:09;;;;;;;2.00;1.90;;;7.10;99.90;;;;;;5049796;28;20595;-73
2022/11/06 00:40:36;;;;;;;2.10;2.00;;;7.00;99.90;;;;;;5050328;28;20198;-73
2022/11/06 00:43:04;;;;;;;2.22;2.13;;;6.90;99.90;;;;;;5049203;28;20226;-73
2022/11/06 00:45:32;;;;;;;2.38;2.28;;;6.90;99.90;;;;;;5045291;28;20207;-73
2022/11/06 00:47:59;;;;;;;2.00;1.90;;;6.90;99.90;;;;;;5046887;28;20219;-74
2022/11/06 00:50:27;;;;;;;2.13;2.03;;;6.90;99.90;;;;;;5054053;28;20215;-73
2022/11/06 00:52:56;;;;;;;2.15;2.05;;;6.90;99.90;;;;;;5050097;28;20242;-73
2022/11/06 00:55:23;;;;;;;2.03;1.92;;;6.90;99.90;;;;;;5043491;28;20200;-73
2022/11/06 00:57:51;;;;;;;1.98;1.88;;;6.90;99.90;;;;;;5039106;28;20224;-74
2022/11/06 01:00:19;;;;;;;2.15;2.05;;;7.00;99.90;;;;;;5028559;28;20285;-73
2022/11/06 01:02:48;;;;;;;2.00;1.90;;;6.90;99.90;;;;;;5026376;28;20231;-73
2022/11/06 01:05:15;;;;;;;1.83;1.73;;;7.00;99.90;;;;;;5025847;28;20208;-72
2022/11/06 01:07:43;;;;;;;2.08;1.98;;;7.00;99.90;;;;;;5028707;28;20250;-73
2022/11/06 01:10:10;;;;;;;2.65;1.90;;;7.00;99.90;;;;;;5028693;28;20696;-73
2022/11/06 01:12:38;;;;;;;1.60;1.60;;;7.10;99.90;;;;;;5027845;28;20226;-73
2022/11/06 01:15:06;;;;;;;1.90;1.80;;;7.10;99.90;;;;;;5026468;28;20253;-73
2022/11/06 01:17:35;;;;;;;1.50;1.50;;;7.10;99.90;;;;;;5035826;28;20712;-72
2022/11/06 01:20:05;;;;;;;1.98;1.90;;;7.10;99.90;;;;;;5046943;28;20218;-73
2022/11/06 01:22:32;;;;;;;2.17;2.08;;;7.10;99.90;;;;;;5048259;28;20306;-73
2022/11/06 01:25:00;;;;;;;2.10;2.00;;;7.20;99.90;;;;;;5048094;28;20245;-73
2022/11/06 01:27:27;;;;;;;1.90;1.80;;;7.20;99.90;;;;;;5047539;28;20222;-74
2022/11/06 01:29:54;;;;;;;1.90;1.80;;;7.20;99.90;;;;;;5047866;28;20207;-73
2022/11/06 01:32:21;;;;;;;2.00;1.90;;;7.20;99.90;;;;;;5044583;28;20214;-73
2022/11/06 01:34:50;;;;;;;1.80;1.70;;;7.20;99.90;;;;;;5046544;28;20206;-73
2022/11/06 01:37:19;;;;;;;2.20;2.10;;;7.30;99.90;;;;;;5046089;28;20227;-72
2022/11/06 01:39:46;;;;;;;2.13;2.03;;;7.20;99.90;;;;;;5048587;28;20207;-73
2022/11/06 01:42:14;;;;;;;1.70;1.65;;;7.20;99.90;;;;;;5047206;28;20211;-73
2022/11/06 01:45:25;;;;;;;1.60;1.60;;;7.20;99.90;;;;;;5048233;28;20218;-73
2022/11/06 01:47:52;;;;;;;1.70;1.70;;;7.20;99.90;;;;;;5038216;28;20277;-73
2022/11/06 01:50:20;;;;;;;1.67;1.52;;;7.20;99.90;;;;;;5024238;28;20204;-73
2022/11/06 01:52:52;;;;;;;1.77;1.77;;;7.20;99.90;;;;;;5029407;28;20226;-73
2022/11/06 01:55:23;;;;;;;1.70;1.70;;;7.10;99.90;;;;;;5029166;28;20551;-72
2022/11/06 01:57:51;;;;;;;1.95;1.85;;;7.10;99.90;;;;;;5027824;28;20593;-72
2022/11/06 02:00:19;;;;;;;2.00;1.90;;;7.10;99.90;;;;;;5029055;28;20207;-73
2022/11/06 02:02:47;;;;;;;1.75;1.75;;;7.10;99.90;;;;;;5030001;28;20261;-72
2022/11/06 02:05:14;;;;;;;1.52;1.52;;;7.10;99.90;;;;;;5027185;28;20254;-73
2022/11/06 02:07:43;;;;;;;1.55;1.55;;;7.10;99.90;;;;;;5041868;28;20242;-73
2022/11/06 02:10:12;;;;;;;1.70;1.70;;;7.10;99.90;;;;;;5048858;28;20210;-73
2022/11/06 02:12:58;;;;;;;1.75;1.65;;;7.00;99.90;;;;;;5047641;28;20217;-73
2022/11/06 02:15:43;;;;;;;1.92;1.83;;;7.00;99.90;;;;;;5043414;28;20202;-71
2022/11/06 02:18:34;;;;;;;1.80;1.70;;;6.90;99.90;;;;;;5050473;28;20740;-73
2022/11/06 02:21:20;;;;;;;2.00;1.90;;;6.80;99.90;;;;;;5044800;28;20199;-72
2022/11/06 02:24:19;;;;;;;1.75;1.75;;;6.80;99.90;;;;;;5030047;28;20646;-72
2022/11/06 02:27:09;;;;;;;1.77;1.77;;;6.70;99.90;;;;;;5027355;28;20318;-72
2022/11/06 02:29:43;;;;;;;1.50;1.50;;;6.70;99.90;;;;;;5031823;28;20204;-72
2022/11/06 02:32:16;;;;;;;1.80;1.70;;;6.70;99.90;;;;;;5031836;28;20755;-72
2022/11/06 02:34:46;;;;;;;1.65;1.55;;;6.70;99.90;;;;;;5049292;28;20203;-73
2022/11/06 02:37:18;;;;;;;2.15;2.05;;;6.60;99.90;;;;;;5053890;28;20305;-72
2022/11/06 02:39:48;;;;;;;1.70;1.70;;;6.60;99.90;;;;;;5046149;28;20205;-72
2022/11/06 02:42:20;;;;;;;1.77;1.77;;;6.60;99.90;;;;;;5048915;28;20325;-73
2022/11/06 02:44:50;;;;;;;2.10;2.00;;;6.50;99.90;;;;;;5048224;28;20207;-72
2022/11/06 02:47:20;;;;;;;1.60;1.60;;;6.50;99.90;;;;;;5051032;28;20596;-72
2022/11/06 02:49:50;;;;;;;2.05;1.95;;;6.50;99.90;;;;;;5050410;28;20230;-73
2022/11/06 02:52:20;;;;;;;2.20;2.10;;;6.40;99.90;;;;;;5047638;28;20592;-73
2022/11/06 02:54:52;;;;;;;1.75;1.75;;;6.50;99.90;;;;;;5046031;28;20683;-73
2022/11/06 02:57:24;;;;;;;1.80;1.80;;;6.50;99.90;;;;;;5045706;28;20595;-72
2022/11/06 03:00:02;;;;;;;2.33;2.22;;;6.60;99.90;;;;;;5049617;28;20195;-72
2022/11/06 03:02:34;;;;;;;1.50;1.50;;;6.60;99.90;;;;;;5052268;28;20233;-72
2022/11/06 03:05:08;;;;;;;1.75;1.75;;;6.60;99.90;;;;;;5043923;28;20196;-72
2022/11/06 03:07:40;;;;;;;1.80;1.70;;;6.70;99.90;;;;;;5048280;28;20471;-73
2022/11/06 03:10:09;;;;;;;1.75;1.75;;;6.70;99.90;;;;;;5047616;28;20256;-73
2022/11/06 03:12:49;;;;;;;1.88;1.83;;;6.60;99.90;;;;;;5045801;28;20273;-73
2022/11/06 03:15:23;;;;;;;1.88;1.80;;;6.60;99.90;;;;;;5044599;28;20213;-73
2022/11/06 03:17:57;;;;;;;2.20;2.10;;;6.60;99.90;;;;;;5047545;28;20227;-72
2022/11/06 03:20:31;;;;;;;1.50;1.50;;;6.50;99.90;;;;;;5046963;28;20252;-72
2022/11/06 03:23:06;;;;;;;1.80;1.70;;;6.60;99.90;;;;;;5047990;28;20214;-72
2022/11/06 03:25:42;;;;;;;1.90;1.90;;;6.60;99.90;;;;;;5047295;28;20563;-72
2022/11/06 03:28:15;;;;;;;1.77;1.77;;;6.60;99.90;;;;;;5049260;28;20219;-73
2022/11/06 03:30:46;;;;;;;1.80;1.80;;;6.60;99.90;;;;;;5046867;28;20199;-73
2022/11/06 03:33:18;;;;;;;1.40;1.40;;;6.70;99.90;;;;;;5046322;28;20217;-72
2022/11/06 03:35:50;;;;;;;1.75;1.75;;;6.70;99.90;;;;;;5050581;28;20202;-73
2022/11/06 03:38:22;;;;;;;1.75;1.75;;;6.70;99.90;;;;;;5047921;28;20304;-73
2022/11/06 03:40:55;;;;;;;1.85;1.75;;;6.70;99.90;;;;;;5049762;28;20202;-72
2022/11/06 03:43:28;;;;;;;1.88;1.77;;;6.70;99.90;;;;;;5047781;28;20751;-72
2022/11/06 03:45:58;;;;;;;2.13;2.03;;;6.70;99.90;;;;;;5050996;28;20203;-72
2022/11/06 03:48:31;;;;;;;1.85;1.75;;;6.60;99.90;;;;;;5051841;28;20226;-72
2022/11/06 03:51:05;;;;;;;2.10;2.00;;;6.70;99.90;;;;;;5051245;28;20199;-71
2022/11/06 03:53:39;;;;;;;1.90;1.90;;;6.60;99.90;;;;;;5048814;28;20699;-71
2022/11/06 03:56:13;;;;;;;2.17;2.08;;;6.70;99.90;;;;;;5053436;28;20206;-72
2022/11/06 03:58:46;;;;;;;2.10;2.00;;;6.70;99.90;;;;;;5046113;28;20722;-72
2022/11/06 04:01:17;;;;;;;2.00;1.90;;;6.70;99.90;;;;;;5053465;28;20676;-72
2022/11/06 04:03:49;;;;;;;1.63;1.60;;;6.70;99.90;;;;;;5049507;28;20227;-71
2022/11/06 04:06:20;;;;;;;1.95;1.90;;;6.70;99.90;;;;;;5049625;28;20211;-71
2022/11/06 04:14:26;;;;;;;1.52;1.52;;;6.50;99.90;;;;;;5029529;28;20249;-73
2022/11/06 04:16:56;;;;;;;1.65;1.65;;;6.50;99.90;;;;;;5032837;28;20227;-73
2022/11/06 04:19:24;;;;;;;1.63;1.63;;;6.40;99.90;;;;;;5028310;28;20238;-73
2022/11/06 04:22:16;;;;;;;1.80;1.80;;;6.30;99.90;;;;;;5026540;28;20246;-72
2022/11/06 04:28:03;;;;;;;1.90;1.90;;;6.20;99.90;;;;;;5029647;28;20596;-72
2022/11/06 04:30:39;;;;;;;2.00;1.90;;;6.10;99.90;;;;;;5026839;28;20571;-73
2022/11/06 04:33:12;;;;;;;1.80;1.80;;;6.00;99.90;;;;;;5029062;28;20215;-73
2022/11/06 04:35:50;;;;;;;2.13;2.03;;;6.00;99.90;;;;;;5031795;28;20743;-73
2022/11/06 04:38:26;;;;;;;2.25;1.98;;;6.00;99.90;;;;;;5030493;28;20227;-73
2022/11/06 04:41:04;;;;;;;2.60;2.25;;;6.00;99.90;;;;;;5029418;28;20195;-73
2022/11/06 04:43:40;;;;;;;2.28;2.17;;;6.10;99.90;;;;;;5030485;28;20600;-73
2022/11/06 04:46:12;;;;;;;2.30;2.20;;;6.00;99.90;;;;;;5032149;28;20202;-72
2022/11/06 04:48:40;;;;;;;2.17;2.08;;;6.00;99.90;;;;;;5026251;28;20220;-72
2022/11/06 04:51:10;;;;;;;1.73;1.73;;;6.00;99.90;;;;;;5026092;28;20241;-72
2022/11/06 04:53:39;;;;;;;1.75;1.65;;;5.90;99.90;;;;;;5046372;28;20215;-72
2022/11/06 04:56:11;;;;;;;2.40;2.30;;;6.00;99.90;;;;;;5047062;28;20199;-72
2022/11/06 04:58:38;;;;;;;2.33;2.22;;;6.00;99.90;;;;;;5044746;28;20225;-72
2022/11/06 05:01:06;;;;;;;2.20;2.10;;;6.00;99.90;;;;;;5046099;28;20206;-72
2022/11/06 05:03:35;;;;;;;2.10;2.00;;;6.00;99.90;;;;;;5031016;28;20211;-72
2022/11/06 05:06:02;;;;;;;2.00;1.90;;;6.00;99.90;;;;;;5023361;28;20201;-72
2022/11/06 05:08:30;;;;;;;2.38;2.28;;;6.00;99.90;;;;;;5025347;28;20223;-72
2022/11/06 05:10:57;;;;;;;2.33;2.22;;;6.00;99.90;;;;;;5026202;28;20196;-72
2022/11/06 05:13:24;;;;;;;2.30;2.20;;;6.00;99.90;;;;;;5043029;28;20230;-72
2022/11/06 05:15:56;;;;;;;1.90;1.80;;;6.00;99.90;;;;;;5045689;28;20645;-72
2022/11/06 05:18:23;;;;;;;2.28;2.17;;;6.00;99.90;;;;;;5032710;28;20224;-71
2022/11/06 05:22:56;;;;;;;2.30;2.20;;;5.90;99.90;;;;;;5019779;28;20226;-72
2022/11/06 05:23:39;;;;;;;2.00;1.90;;;5.90;99.90;;;;;;5025593;28;20219;-71
2022/11/06 05:26:07;;;;;;;2.25;2.15;;;5.90;99.90;;;;;;5022432;28;20790;-72
2022/11/06 05:28:35;;;;;;;2.10;2.00;;;5.80;99.90;;;;;;5032306;28;20834;-72
2022/11/06 05:31:02;;;;;;;1.85;1.85;;;5.80;99.90;;;;;;5027686;28;20204;-72
2022/11/06 05:33:30;;;;;;;2.17;2.08;;;5.70;99.90;;;;;;5032232;28;20222;-72
2022/11/06 05:36:01;;;;;;;2.40;2.30;;;5.70;99.90;;;;;;5024375;28;20607;-72
2022/11/06 05:38:29;;;;;;;2.30;2.20;;;5.70;99.90;;;;;;5025591;28;20705;-72
2022/11/06 05:40:56;;;;;;;2.05;1.95;;;5.70;99.90;;;;;;5025556;28;20212;-72
2022/11/06 05:43:24;;;;;;;2.47;2.38;;;5.80;99.90;;;;;;5033031;28;20219;-73
2022/11/06 05:45:51;;;;;;;2.28;2.17;;;5.80;99.90;;;;;;5026780;28;20196;-72
2022/11/06 05:48:18;;;;;;;2.25;2.15;;;5.80;99.90;;;;;;5021211;28;20227;-73
2022/11/06 05:50:46;;;;;;;2.20;2.10;;;5.80;99.90;;;;;;5026747;28;20619;-73
2022/11/06 05:53:15;;;;;;;2.08;1.98;;;5.90;99.90;;;;;;5028825;28;20710;-73
2022/11/06 05:55:42;;;;;;;2.20;2.10;;;5.90;99.90;;;;;;5026263;28;20200;-72
2022/11/06 05:58:09;;;;;;;2.28;2.17;;;5.90;99.90;;;;;;5022941;28;20219;-72
2022/11/06 06:00:36;;;;;;;2.17;2.08;;;5.90;99.90;;;;;;5028405;28;20223;-71
2022/11/06 06:03:04;;;;;;;2.00;1.90;;;5.90;99.90;;;;;;5038620;28;20225;-72
2022/11/06 06:05:31;;;;;;;2.08;2.03;;;5.90;99.90;;;;;;5047745;28;20741;-72
2022/11/06 06:07:58;;;;;;;2.35;2.25;;;5.90;99.90;;;;;;5048292;28;20222;-72
2022/11/06 06:10:27;;;;;;;2.17;2.08;;;5.80;99.90;;;;;;5047412;28;20209;-72
2022/11/06 06:12:54;;;;;;;2.20;2.10;;;5.80;99.90;;;;;;5046300;28;20218;-72
2022/11/06 06:15:21;;;;;;;2.20;2.10;;;5.80;99.90;;;;;;5046225;28;20199;-73
2022/11/06 06:17:49;;;;;;;2.20;2.10;;;5.80;99.90;;;;;;5048006;28;20876;-73
2022/11/06 06:20:16;;;;;;;2.40;2.30;;;5.70;99.90;;;;;;5050699;28;20920;-73
2022/11/06 06:22:43;;;;;;;2.47;2.38;;;5.70;99.90;;;;;;5047721;28;20226;-72
2022/11/06 06:25:11;;;;;;;2.22;2.13;;;5.80;99.90;;;;;;5044883;28;20215;-73
2022/11/06 06:27:40;;;;;;;2.10;2.00;;;5.80;99.90;;;;;;5046516;28;20219;-73
2022/11/06 06:30:09;;;;;;;2.15;2.05;;;5.80;99.90;;;;;;5047826;28;20805;-73
2022/11/06 06:32:36;;;;;;;2.50;2.40;;;5.90;99.90;;;;;;5047822;28;20218;-72
2022/11/06 06:35:03;;;;;;;3.00;2.15;;;5.90;99.90;;;;;;5053445;28;20187;-72
2022/11/06 06:37:30;;;;;;;2.60;2.50;;;5.90;99.90;;;;;;5037261;28;20223;-72
2022/11/06 06:39:58;;;;;;;2.67;2.58;;;5.90;99.90;;;;;;5024332;28;20202;-72
2022/11/06 06:42:25;;;;;;;2.50;2.40;;;5.90;99.90;;;;;;5032568;28;20214;-73
2022/11/06 06:44:54;;;;;;;2.58;2.47;;;5.80;99.90;;;;;;5044674;28;21053;-73
2022/11/06 06:47:21;;;;;;;2.55;2.45;;;5.80;99.90;;;;;;5042965;28;20234;-73
2022/11/06 06:49:49;;;;;;;2.55;2.45;;;5.80;99.90;;;;;;5045216;28;20198;-73
2022/11/06 06:52:16;;;;;;;2.22;2.13;;;5.80;99.90;;;;;;5046075;28;20260;-72
2022/11/06 06:54:44;;;;;;;2.50;2.40;;;5.80;99.90;;;;;;5045900;28;20281;-73
2022/11/06 06:57:11;;;;;;;2.28;2.17;;;5.80;99.90;;;;;;5044398;28;20230;-72
2022/11/06 06:59:38;;;;;;;2.35;2.25;;;5.80;99.90;;;;;;5046939;28;20206;-74
2022/11/06 07:02:08;;;;;;;2.42;2.33;;;5.80;99.90;;;;;;5048230;28;20626;-73
2022/11/06 07:04:35;;;;;;;2.30;2.20;;;5.80;99.90;;;;;;5043469;28;20219;-73
2022/11/06 07:07:03;;;;;;;2.15;2.05;;;5.80;99.90;;;;;;5048461;28;20219;-73
2022/11/06 07:09:31;;;;;;;2.60;2.50;;;5.90;99.90;;;;;;5049669;28;20226;-72
2022/11/06 07:11:58;;;;;;;2.50;2.40;;;6.40;99.90;;;;;;5045655;28;20215;-71
2022/11/06 07:14:26;;;;;;;2.70;2.60;;;7.40;99.90;;;;;;5046447;28;20191;-73
2022/11/06 07:16:53;;;;;;;2.42;2.33;;;8.40;99.90;;;;;;5046759;28;20231;-75
2022/11/06 07:19:22;;;;;;;2.20;2.10;;;9.40;99.90;;;;;;5050109;28;20222;-74
2022/11/06 07:21:51;;;;;;;2.70;2.50;;;10.10;99.90;;;;;;5045755;28;20221;-72
2022/11/06 07:24:19;;;;;;;2.63;2.42;;;10.70;99.90;;;;;;5047363;28;20218;-74
2022/11/06 07:26:47;;;;;;;2.55;2.35;;;11.30;99.90;;;;;;5042953;28;20199;-73
2022/11/06 07:29:14;;;;;;;1.85;1.75;;;11.50;99.90;;;;;;5033805;28;20597;-73
2022/11/06 07:31:41;;;;;;;1.90;1.80;;;11.90;99.90;;;;;;5026709;28;20295;-74
2022/11/06 07:34:09;;;;;;;1.80;1.70;;;12.30;99.90;;;;;;5039945;28;20211;-74
2022/11/06 07:36:38;;;;;;;1.70;1.60;;;12.70;99.90;;;;;;5036723;28;20192;-74
2022/11/06 07:39:05;;;;;;;2.08;1.70;;;13.10;99.90;;;;;;5040630;28;20215;-74
2022/11/06 07:41:33;;;;;;;1.40;1.40;;;13.30;99.90;;;;;;5034324;28;20196;-73
2022/11/06 07:44:00;;;;;;;1.42;1.40;;;13.60;99.90;;;;;;5034591;28;20246;-74
2022/11/06 07:46:27;;;;;;;1.65;1.55;;;13.80;99.90;;;;;;5032653;28;20210;-74
2022/11/06 07:48:55;;;;;;;1.70;1.60;;;14.10;99.90;;;;;;5024526;28;20701;-74
2022/11/06 07:51:22;;;;;;;1.83;1.73;;;14.50;99.90;;;;;;5031852;28;20285;-74
2022/11/06 07:53:51;;;;;;;4.10;2.63;;;14.70;99.90;;;;;;5051810;28;20565;-74
2022/11/06 07:56:18;;;;;;;2.10;2.00;;;14.50;99.90;;;;;;5052042;28;20199;-74
2022/11/06 07:58:46;;;;;;;1.98;1.88;;;14.60;99.90;;;;;;5059202;28;20222;-74
2022/11/06 08:01:16;;;;;;;1.90;1.80;;;14.70;99.90;;;;;;5079672;28;20217;-74
2022/11/06 08:03:43;;;;;;;1.45;1.35;;;14.40;99.90;;;;;;5047091;28;20976;-74
2022/11/06 08:06:11;;;;;;;1.60;1.50;;;14.40;99.90;;;;;;5050085;28;20206;-74
2022/11/06 08:08:38;;;;;;;1.90;1.70;;;14.40;99.90;;;;;;5046506;28;20727;-74
2022/11/06 08:11:10;;;;;;;1.40;1.35;;;14.40;99.90;;;;;;5049189;28;20199;-74
2022/11/06 08:13:38;;;;;;;1.60;1.50;;;14.20;99.90;;;;;;5050470;28;20222;-74
2022/11/06 08:16:07;;;;;;;1.52;1.42;;;14.10;99.90;;;;;;5055330;28;20675;-74
2022/11/06 08:18:34;;;;;;;1.92;1.83;;;14.10;99.90;;;;;;5050360;28;20225;-74
2022/11/06 08:21:02;;;;;;;1.85;1.75;;;14.30;99.90;;;;;;5048145;28;20665;-74
2022/11/06 08:23:29;;;;;;;1.67;1.58;;;14.50;99.90;;;;;;5047205;28;20210;-74
2022/11/06 08:25:58;;;;;;;2.25;2.15;;;14.70;99.90;;;;;;5048649;28;20218;-75
2022/11/06 08:28:27;;;;;;;1.75;1.65;;;14.50;99.90;;;;;;5047838;28;20219;-74
2022/11/06 08:30:55;;;;;;;1.60;1.50;;;14.30;99.90;;;;;;5049482;28;20203;-74
2022/11/06 08:33:23;;;;;;;2.58;1.80;;;14.20;99.90;;;;;;5049302;28;20284;-75
2022/11/06 08:35:51;;;;;;;1.73;1.63;;;14.00;99.90;;;;;;5049357;28;20195;-75
2022/11/06 08:38:18;;;;;;;2.00;1.88;;;14.20;99.90;;;;;;5052332;28;20226;-74
2022/11/06 08:40:45;;;;;;;2.10;1.98;;;14.50;99.90;;;;;;5049550;28;20933;-74
2022/11/06 08:43:13;;;;;;;2.47;1.63;;;14.70;99.90;;;;;;5050521;28;20215;-74
2022/11/06 08:45:43;;;;;;;1.95;1.83;;;15.00;99.90;;;;;;5048107;28;20734;-75
2022/11/06 08:48:11;;;;;;;1.80;1.70;;;15.20;99.90;;;;;;5030422;28;20231;-75
2022/11/06 08:50:41;;;;;;;3.08;2.00;;;15.40;99.90;;;;;;5026997;28;20195;-76
2022/11/06 08:53:08;;;;;;;1.98;1.88;;;15.80;99.90;;;;;;5040735;28;20214;-73
2022/11/06 08:55:38;;;;;;;2.22;2.10;;;16.00;99.90;;;;;;5044115;28;20200;-74
2022/11/06 08:58:06;;;;;;;2.05;1.90;;;16.10;99.90;;;;;;5047334;28;20221;-75
2022/11/06 09:00:33;;;;;;;2.00;1.90;;;16.30;99.90;;;;;;5046061;28;20195;-73
2022/11/06 09:03:04;;;;;;;2.00;1.90;;;16.50;99.90;;;;;;5044216;28;20703;-74
2022/11/06 09:05:32;;;;;;;2.13;2.00;;;16.60;99.90;;;;;;5046305;28;20219;-74
2022/11/06 09:07:59;;;;;;;1.70;1.60;;;16.70;99.90;;;;;;5047426;28;20222;-74
2022/11/06 09:10:27;;;;;;;1.90;1.80;;;17.10;99.90;;;;;;5053036;28;20261;-73
2022/11/06 09:12:56;;;;;;;2.05;1.85;;;17.40;99.90;;;;;;5054152;28;20250;-74
2022/11/06 09:15:23;;;;;;;1.73;1.63;;;17.50;99.90;;;;;;5051036;28;20227;-75
2022/11/06 09:17:51;;;;;;;1.60;1.50;;;17.50;99.90;;;;;;5052340;28;20712;-73
2022/11/06 09:20:23;;;;;;;1.90;1.80;;;17.30;99.90;;;;;;5049571;28;20333;-75
2022/11/06 09:22:50;;;;;;;1.98;1.88;;;17.20;99.90;;;;;;5047388;28;20723;-74
2022/11/06 09:25:19;;;;;;;1.90;1.80;;;17.00;99.90;;;;;;5048491;28;20280;-74
2022/11/06 09:27:48;;;;;;;2.00;1.90;;;17.10;99.90;;;;;;5042539;28;20729;-74
2022/11/06 09:30:17;;;;;;;1.70;1.60;;;17.00;99.90;;;;;;5030087;28;20200;-72
2022/11/06 09:32:50;;;;;;;1.63;1.52;;;17.00;99.90;;;;;;5033114;28;20476;-74
2022/11/06 09:35:19;;;;;;;1.70;1.60;;;17.00;99.90;;;;;;5032983;28;20195;-74
2022/11/06 09:37:47;;;;;;;1.80;1.70;;;17.00;99.90;;;;;;5029925;28;20227;-74
2022/11/06 09:40:21;;;;;;;1.60;1.50;;;17.10;99.90;;;;;;5035496;28;20214;-73
2022/11/06 09:43:01;;;;;;;1.60;1.40;;;17.20;99.90;;;;;;5034883;28;20277;-74
2022/11/06 09:45:32;;;;;;;1.70;1.60;;;17.30;99.90;;;;;;5035295;28;20222;-75
2022/11/06 09:48:05;;;;;;;1.73;1.63;;;17.20;99.90;;;;;;5032445;28;20219;-75
2022/11/06 09:50:40;;;;;;;1.80;1.70;;;17.20;99.90;;;;;;5038032;28;20502;-75
2022/11/06 09:53:15;;;;;;;1.50;1.40;;;17.20;99.90;;;;;;5049385;28;20215;-74
2022/11/06 09:55:44;;;;;;;2.95;1.65;;;17.20;99.90;;;;;;5035737;28;20565;-74
2022/11/06 09:58:16;;;;;;;2.42;1.60;;;17.10;99.90;;;;;;5046380;28;20633;-75
2022/11/06 10:00:43;;;;;;;2.72;2.10;;;17.20;99.90;;;;;;5047968;28;20203;-73
2022/11/06 10:03:18;;;;;;;1.67;1.58;;;16.90;99.90;;;;;;5047130;28;20221;-74
2022/11/06 10:05:47;;;;;;;1.60;1.50;;;16.80;99.90;;;;;;5052323;28;20218;-74
2022/11/06 10:08:20;;;;;;;2.13;1.30;;;16.70;99.90;;;;;;5049110;28;20276;-74
2022/11/06 10:10:57;;;;;;;1.60;1.50;;;16.80;99.90;;;;;;5050901;28;20256;-74
2022/11/06 10:13:43;;;;;;;1.38;1.30;;;17.00;99.90;;;;;;5045380;28;20214;-74
2022/11/06 10:16:18;;;;;;;1.45;1.35;;;16.80;99.90;;;;;;5052288;28;20186;-75
2022/11/06 10:18:54;;;;;;;1.48;1.38;;;16.70;99.90;;;;;;5048217;28;20233;-74
2022/11/06 10:21:26;;;;;;;1.30;1.20;;;16.50;99.90;;;;;;5047632;28;20202;-75
2022/11/06 10:23:58;;;;;;;1.30;1.30;;;16.50;99.90;;;;;;5053868;28;20214;-74
2022/11/06 10:26:35;;;;;;;1.73;1.15;;;16.40;99.90;;;;;;5047013;28;20326;-73
2022/11/06 10:29:40;;;;;;;1.00;0.90;;;16.50;99.90;;;;;;5049443;28;20564;-74
2022/11/06 10:32:40;;;;;;;1.42;1.33;;;16.60;99.90;;;;;;5049945;28;20211;-74
2022/11/06 10:35:15;;;;;;;1.17;1.17;;;16.80;99.90;;;;;;5048339;28;20194;-74
2022/11/06 10:37:51;;;;;;;1.40;1.30;;;16.90;99.90;;;;;;5041118;28;20230;-75
2022/11/06 10:40:22;;;;;;;1.52;1.42;;;16.80;99.90;;;;;;5037876;28;20202;-74
2022/11/06 10:42:56;;;;;;;1.58;1.40;;;16.80;99.90;;;;;;5032316;28;20226;-75
2022/11/06 10:45:26;;;;;;;2.10;1.25;;;16.70;99.90;;;;;;5029251;28;20719;-74
2022/11/06 10:47:59;;;;;;;1.13;1.13;;;16.60;99.90;;;;;;5037120;28;20228;-74
2022/11/06 10:50:34;;;;;;;1.52;1.42;;;16.50;99.90;;;;;;5030854;28;20206;-73
2022/11/06 10:53:08;;;;;;;1.45;1.38;;;16.30;99.90;;;;;;5027560;28;20215;-75
2022/11/06 10:55:56;;;;;;;1.50;1.40;;;16.00;99.90;;;;;;5030982;28;20718;-74
2022/11/06 10:58:27;;;;;;;1.38;1.35;;;16.00;99.90;;;;;;5033181;28;20215;-74
2022/11/06 11:00:58;;;;;;;1.00;1.00;;;16.20;99.90;;;;;;5032776;28;20195;-74
2022/11/06 11:03:30;;;;;;;1.00;1.00;;;16.40;99.90;;;;;;5039429;28;20230;-71
2022/11/06 11:05:57;;;;;;;1.17;1.17;;;16.40;99.90;;;;;;5033557;28;20224;-74
2022/11/06 11:08:50;;;;;;;1.13;1.13;;;16.40;99.90;;;;;;5031535;28;20222;-74
2022/11/06 11:11:22;;;;;;;1.60;1.40;;;16.40;99.90;;;;;;5027559;28;20691;-75
2022/11/06 11:13:51;;;;;;;1.63;1.52;;;16.40;99.90;;;;;;5032105;28;20694;-72
2022/11/06 11:16:22;;;;;;;1.60;1.40;;;16.30;99.90;;;;;;5005697;28;20211;-72
2022/11/06 11:18:50;;;;;;;1.50;1.40;;;16.40;99.90;;;;;;5026096;28;20227;-72
2022/11/06 11:21:26;;;;;;;1.40;1.30;;;16.40;99.90;;;;;;5026723;28;20277;-72
2022/11/06 11:24:11;;;;;;;1.30;1.20;;;16.20;99.90;;;;;;5022614;28;20605;-72
2022/11/06 11:26:43;;;;;;;1.00;1.00;;;16.20;99.90;;;;;;5016015;28;20223;-72
2022/11/06 11:29:16;;;;;;;1.92;1.40;;;16.10;99.90;;;;;;5042735;28;20225;-72
2022/11/06 11:31:48;;;;;;;1.20;1.20;;;16.00;99.90;;;;;;5041512;28;20203;-72
2022/11/06 11:34:20;;;;;;;1.30;1.30;;;16.00;99.90;;;;;;5030892;28;20235;-72
2022/11/06 11:36:59;;;;;;;1.30;1.30;;;16.10;99.90;;;;;;5024558;28;20605;-72
2022/11/06 11:39:30;;;;;;;1.20;1.20;;;16.50;99.90;;;;;;5022579;28;20569;-72
2022/11/06 11:42:21;;;;;;;1.10;1.10;;;16.70;99.90;;;;;;5025073;28;20755;-72
2022/11/06 11:45:17;;;;;;;1.20;1.20;;;16.80;99.90;;;;;;5038586;28;20199;-72
2022/11/06 11:47:46;;;;;;;1.50;1.40;;;16.80;99.90;;;;;;5042006;28;20223;-72
2022/11/06 11:50:30;;;;;;;2.85;1.30;;;16.90;99.90;;;;;;5041750;28;20195;-73
2022/11/06 11:53:07;;;;;;;1.20;1.10;;;17.00;99.90;;;;;;5041613;28;20218;-72
2022/11/06 11:55:43;;;;;;;1.05;1.05;;;16.80;99.90;;;;;;5041795;28;20191;-72
2022/11/06 11:58:20;;;;;;;1.17;1.10;;;16.80;99.90;;;;;;5043211;28;20230;-73
2022/11/06 12:00:59;;;;;;;1.17;1.05;;;16.90;99.90;;;;;;5040313;28;20203;-72
2022/11/06 12:03:32;;;;;;;1.45;1.20;;;16.70;99.90;;;;;;5048180;28;20237;-72
2022/11/06 12:06:09;;;;;;;1.13;1.13;;;16.70;99.90;;;;;;5042835;28;20215;-72
2022/11/06 12:08:40;;;;;;;1.00;1.00;;;16.70;99.90;;;;;;5043726;28;20229;-72
2022/11/06 12:11:13;;;;;;;1.25;1.20;;;16.60;99.90;;;;;;5038654;28;20200;-72
2022/11/06 12:13:40;;;;;;;1.27;1.20;;;16.40;99.90;;;;;;5048361;28;20345;-71
2022/11/06 12:16:14;;;;;;;1.23;1.23;;;16.40;99.90;;;;;;5049815;28;20195;-71
2022/11/06 12:18:45;;;;;;;1.23;1.17;;;16.30;99.90;;;;;;5042002;28;20230;-72
2022/11/06 12:21:18;;;;;;;1.25;1.25;;;16.20;99.90;;;;;;5044948;28;20671;-71
2022/11/06 12:23:50;;;;;;;1.20;1.20;;;16.20;99.90;;;;;;5023789;28;20230;-73
2022/11/06 12:26:27;;;;;;;1.17;1.17;;;16.30;99.90;;;;;;5021351;28;20269;-74
2022/11/06 12:28:59;;;;;;;1.85;1.13;;;16.40;99.90;;;;;;5024448;28;20220;-73
2022/11/06 12:31:37;;;;;;;1.10;1.10;;;16.30;99.90;;;;;;5021846;28;20192;-74
2022/11/06 12:34:08;;;;;;;1.05;1.00;;;16.40;99.90;;;;;;5020065;28;20246;-74
2022/11/06 12:36:40;;;;;;;1.20;1.20;;;16.30;99.90;;;;;;5023434;28;20191;-73
2022/11/06 12:39:15;;;;;;;1.30;1.30;;;16.30;99.90;;;;;;5030474;28;20223;-73
2022/11/06 12:41:47;;;;;;;1.30;1.30;;;16.20;99.90;;;;;;5031603;28;20685;-74
2022/11/06 12:44:16;;;;;;;1.30;1.20;;;16.20;99.90;;;;;;5032249;28;20200;-74
2022/11/06 12:46:51;;;;;;;1.40;1.30;;;16.30;99.90;;;;;;5034738;28;20230;-74
2022/11/06 12:49:38;;;;;;;1.30;1.20;;;16.40;99.90;;;;;;5043726;28;20215;-73
2022/11/06 12:52:18;;;;;;;1.40;1.30;;;16.50;99.90;;;;;;5040281;28;20219;-74
2022/11/06 12:55:10;;;;;;;1.50;1.40;;;16.40;99.90;;;;;;5049434;28;20274;-72
2022/11/06 12:57:56;;;;;;;1.23;1.20;;;16.20;99.90;;;;;;5041526;28;20231;-75
2022/11/06 13:00:25;;;;;;;1.25;1.17;;;16.00;99.90;;;;;;5044010;28;20195;-74
2022/11/06 13:03:20;;;;;;;1.42;1.33;;;15.90;99.90;;;;;;5045984;28;20310;-74
2022/11/06 13:05:55;;;;;;;1.40;1.30;;;15.90;99.90;;;;;;5049058;28;20215;-74
2022/11/06 13:08:35;;;;;;;1.95;1.20;;;16.00;99.90;;;;;;5044835;28;20670;-73
2022/11/06 13:11:15;;;;;;;1.10;1.10;;;16.00;99.90;;;;;;5044008;28;20198;-73
2022/11/06 13:14:06;;;;;;;1.20;1.15;;;16.10;99.90;;;;;;5043306;28;20222;-73
2022/11/06 13:16:41;;;;;;;1.20;1.20;;;16.10;99.90;;;;;;5042072;28;20206;-74
2022/11/06 13:19:19;;;;;;;1.20;1.20;;;16.10;99.90;;;;;;5045430;28;20309;-73
2022/11/06 13:22:15;;;;;;;1.10;1.10;;;16.00;99.90;;;;;;5048677;28;20212;-74
2022/11/06 13:24:48;;;;;;;1.17;1.17;;;15.80;99.90;;;;;;5060821;28;20203;-75
2022/11/06 13:27:26;;;;;;;1.23;1.23;;;15.90;99.90;;;;;;5047217;28;20874;-74